createdAt,value
2018-09-28T00:00:50.607Z,13.37
2018-09-28T00:03:19.509Z,14.37
2018-09-28T00:05:48.381Z,13.43
2018-09-28T00:08:17.337Z,12.67
2018-09-28T00:10:46.205Z,13.30
2018-09-28T00:13:15.111Z,13.10
2018-09-28T00:15:43.980Z,13.17
2018-09-28T00:18:12.863Z,13.20
2018-09-28T00:20:41.763Z,13.77
2018-09-28T00:23:10.676Z,14.10
2018-09-28T00:25:39.522Z,13.20
2018-09-28T00:28:08.434Z,13.83
2018-09-28T00:30:37.287Z,13.97
2018-09-28T00:33:06.343Z,13.37
2018-09-28T00:35:35.250Z,13.57
2018-09-28T00:38:04.129Z,13.83
2018-09-28T00:40:33.029Z,13.90
2018-09-28T00:43:01.878Z,14.03
2018-09-28T00:45:30.869Z,13.87
2018-09-28T00:47:59.742Z,13.83
2018-09-28T00:50:28.663Z,13.60
2018-09-28T00:52:57.639Z,14.13
2018-09-28T00:55:27.139Z,13.73
2018-09-28T00:57:56.398Z,13.67
2018-09-28T01:00:25.319Z,13.57
2018-09-28T01:02:54.185Z,13.30
2018-09-28T01:05:23.113Z,13.37
2018-09-28T01:07:52.182Z,13.93
2018-09-28T01:10:21.372Z,13.83
2018-09-28T01:12:50.223Z,14.40
2018-09-28T01:15:19.141Z,13.60
2018-09-28T01:17:48.008Z,14.37
2018-09-28T01:20:17.252Z,14.17
2018-09-28T01:22:46.252Z,13.23
2018-09-28T01:25:15.453Z,13.20
2018-09-28T01:27:44.327Z,14.63
2018-09-28T01:30:13.228Z,13.27
2018-09-28T01:32:42.128Z,12.00
2018-09-28T01:35:11.056Z,11.50
2018-09-28T01:37:39.938Z,9.23
2018-09-28T01:40:08.802Z,5.97
2018-09-28T01:42:37.701Z,3.63
2018-09-28T01:45:08.468Z,3.50
2018-09-28T01:47:37.390Z,2.10
2018-09-28T01:50:06.252Z,2.67
2018-09-28T01:52:35.226Z,1.80
2018-09-28T01:55:04.921Z,2.47
2018-09-28T01:57:33.840Z,1.73
2018-09-28T02:00:02.777Z,2.07
2018-09-28T02:02:31.696Z,1.50
2018-09-28T02:05:00.866Z,1.20
2018-09-28T02:07:30.218Z,1.50
2018-09-28T02:09:59.058Z,1.50
2018-09-28T02:12:28.162Z,1.50
2018-09-28T02:14:57.278Z,1.73
2018-09-28T02:17:26.434Z,1.80
2018-09-28T02:19:55.290Z,1.97
2018-09-28T02:22:24.184Z,1.40
2018-09-28T02:24:53.110Z,1.50
2018-09-28T02:27:22.053Z,1.43
2018-09-28T02:29:50.978Z,2.20
2018-09-28T02:32:19.833Z,1.70
2018-09-28T02:34:48.709Z,1.83
2018-09-28T02:37:17.622Z,1.80
2018-09-28T02:39:46.523Z,2.70
2018-09-28T02:42:15.415Z,1.83
2018-09-28T02:44:44.359Z,2.07
2018-09-28T02:47:13.234Z,2.17
2018-09-28T02:49:42.228Z,3.13
2018-09-28T02:52:11.119Z,2.07
2018-09-28T02:54:39.993Z,2.10
2018-09-28T02:57:09.177Z,1.40
2018-09-28T02:59:38.085Z,2.03
2018-09-28T03:02:07.470Z,2.57
2018-09-28T03:04:36.382Z,1.93
2018-09-28T03:07:11.090Z,2.40
2018-09-28T03:09:46.015Z,2.10
2018-09-28T03:12:21.043Z,1.87
2018-09-28T03:14:50.194Z,1.60
2018-09-28T03:17:25.181Z,1.30
2018-09-28T03:20:00.039Z,1.87
2018-09-28T03:22:35.175Z,2.20
2018-09-28T03:25:04.239Z,2.07
2018-09-28T03:27:33.389Z,1.90
2018-09-28T03:30:02.305Z,1.47
2018-09-28T03:32:31.243Z,1.67
2018-09-28T03:35:00.129Z,1.60
2018-09-28T03:37:28.995Z,1.70
2018-09-28T03:39:57.910Z,1.70
2018-09-28T03:42:26.758Z,1.30
2018-09-28T03:44:55.662Z,1.87
2018-09-28T03:47:24.631Z,1.80
2018-09-28T03:49:53.475Z,1.67
2018-09-28T03:52:22.690Z,1.80
2018-09-28T03:54:53.148Z,2.13
2018-09-28T03:57:27.965Z,1.73
2018-09-28T04:00:02.947Z,2.27
2018-09-28T04:02:38.042Z,2.17
2018-09-28T04:05:12.894Z,1.53
2018-09-28T04:07:47.765Z,1.77
2018-09-28T04:10:22.521Z,2.47
2018-09-28T04:12:57.800Z,1.90
2018-09-28T04:15:26.657Z,1.93
2018-09-28T04:17:55.698Z,2.40
2018-09-28T04:20:24.595Z,1.43
2018-09-28T04:22:59.473Z,2.10
2018-09-28T04:25:34.439Z,1.83
2018-09-28T04:28:07.646Z,1.93
2018-09-28T04:30:36.486Z,2.23
2018-09-28T04:33:05.472Z,2.07
2018-09-28T04:35:34.713Z,1.80
2018-09-28T04:38:04.222Z,1.70
2018-09-28T04:40:33.269Z,2.03
2018-09-28T04:43:02.176Z,2.77
2018-09-28T04:45:31.087Z,2.80
2018-09-28T04:48:00.043Z,2.30
2018-09-28T04:50:28.949Z,1.77
2018-09-28T04:52:57.975Z,2.13
2018-09-28T04:55:26.830Z,2.20
2018-09-28T04:57:55.725Z,1.97
2018-09-28T05:00:24.586Z,2.87
2018-09-28T05:02:53.522Z,1.90
2018-09-28T05:05:22.504Z,2.27
2018-09-28T05:07:51.400Z,2.17
2018-09-28T05:10:26.263Z,2.03
2018-09-28T05:13:01.019Z,1.90
2018-09-28T05:15:29.979Z,1.80
2018-09-28T05:17:58.825Z,1.67
2018-09-28T05:20:33.795Z,2.10
2018-09-28T05:23:02.741Z,3.13
2018-09-28T05:25:31.707Z,2.67
2018-09-28T05:28:06.717Z,2.83
2018-09-28T05:30:44.969Z,1.80
2018-09-28T05:33:06.424Z,2.13
2018-09-28T05:35:35.313Z,2.10
2018-09-28T05:38:10.065Z,1.83
2018-09-28T05:40:44.954Z,2.27
2018-09-28T05:43:19.822Z,2.57
2018-09-28T05:45:54.749Z,2.20
2018-09-28T05:48:29.563Z,2.97
2018-09-28T05:50:58.491Z,1.97
2018-09-28T05:53:27.405Z,2.20
2018-09-28T05:55:56.557Z,1.90
2018-09-28T05:58:30.948Z,2.40
2018-09-28T06:01:05.498Z,2.70
2018-09-28T06:03:34.437Z,1.93
2018-09-28T06:06:03.830Z,2.30
2018-09-28T06:08:32.688Z,2.03
2018-09-28T06:11:01.573Z,2.67
2018-09-28T06:13:30.429Z,2.80
2018-09-28T06:15:59.329Z,2.97
2018-09-28T06:18:28.406Z,2.93
2018-09-28T06:20:57.406Z,2.73
2018-09-28T06:23:26.371Z,2.50
2018-09-28T06:25:55.312Z,3.20
2018-09-28T06:28:24.182Z,2.10
2018-09-28T06:30:53.137Z,1.97
2018-09-28T06:33:21.978Z,2.30
2018-09-28T06:35:50.964Z,2.03
2018-09-28T06:38:19.809Z,2.93
2018-09-28T06:40:48.656Z,2.17
2018-09-28T06:43:17.626Z,2.80
2018-09-28T06:45:46.646Z,2.50
2018-09-28T06:48:15.609Z,2.17
2018-09-28T06:50:44.458Z,2.23
2018-09-28T06:53:13.395Z,2.83
2018-09-28T06:55:42.305Z,3.73
2018-09-28T06:58:11.238Z,2.27
2018-09-28T07:00:40.078Z,2.43
2018-09-28T07:03:08.938Z,2.47
2018-09-28T07:05:37.765Z,2.17
2018-09-28T07:08:06.859Z,2.30
2018-09-28T07:10:35.705Z,3.13
2018-09-28T07:13:04.623Z,2.40
2018-09-28T07:15:33.475Z,1.97
2018-09-28T07:18:02.420Z,2.50
2018-09-28T07:20:31.367Z,2.17
2018-09-28T07:23:00.592Z,3.33
2018-09-28T07:25:29.453Z,3.03
2018-09-28T07:27:58.365Z,1.97
2018-09-28T07:30:27.235Z,2.50
2018-09-28T07:32:56.298Z,2.20
2018-09-28T07:35:25.297Z,2.83
2018-09-28T07:37:54.172Z,2.93
2018-09-28T07:40:23.116Z,1.90
2018-09-28T07:42:52.119Z,2.73
2018-09-28T07:45:21.077Z,2.50
2018-09-28T07:47:49.962Z,2.50
2018-09-28T07:50:18.934Z,2.20
2018-09-28T07:52:47.793Z,1.80
2018-09-28T07:55:16.748Z,1.60
2018-09-28T07:57:45.660Z,1.77
2018-09-28T08:00:14.593Z,1.50
2018-09-28T08:02:43.435Z,1.70
2018-09-28T08:05:12.338Z,2.70
2018-09-28T08:07:41.171Z,1.83
2018-09-28T08:10:10.158Z,1.70
2018-09-28T08:12:39.125Z,3.10
2018-09-28T08:15:08.309Z,1.63
2018-09-28T08:17:37.435Z,2.00
2018-09-28T08:20:06.556Z,1.57
2018-09-28T08:22:35.750Z,1.20
2018-09-28T08:25:04.917Z,1.63
2018-09-28T08:27:33.751Z,1.47
2018-09-28T08:30:02.644Z,1.60
2018-09-28T08:32:31.634Z,1.50
2018-09-28T08:35:00.533Z,1.67
2018-09-28T08:37:29.403Z,1.47
2018-09-28T08:39:58.248Z,1.87
2018-09-28T08:42:27.149Z,1.70
2018-09-28T08:44:55.990Z,1.30
2018-09-28T08:47:24.942Z,1.70
2018-09-28T08:49:54.068Z,2.13
2018-09-28T08:52:22.970Z,1.43
2018-09-28T08:54:51.864Z,1.60
2018-09-28T08:57:20.768Z,1.50
2018-09-28T08:59:49.814Z,1.80
2018-09-28T09:02:18.837Z,1.70
2018-09-28T09:04:47.667Z,1.50
2018-09-28T09:07:16.570Z,1.80
2018-09-28T09:09:45.489Z,1.70
2018-09-28T09:12:14.507Z,1.77
2018-09-28T09:14:43.439Z,1.07
2018-09-28T09:17:12.355Z,1.47
2018-09-28T09:19:41.210Z,1.47
2018-09-28T09:22:10.090Z,1.50
2018-09-28T09:24:38.995Z,1.37
2018-09-28T09:27:08.065Z,1.37
2018-09-28T09:29:37.206Z,1.57
2018-09-28T09:32:06.122Z,0.90
2018-09-28T09:34:36.606Z,1.50
2018-09-28T09:37:05.962Z,1.10
2018-09-28T09:39:34.933Z,1.97
2018-09-28T09:42:03.823Z,1.27
2018-09-28T09:44:32.731Z,1.53
2018-09-28T09:47:01.634Z,1.53
2018-09-28T09:49:30.604Z,1.40
2018-09-28T09:51:59.655Z,2.10
2018-09-28T09:54:28.599Z,1.60
2018-09-28T09:56:57.478Z,1.73
2018-09-28T09:59:26.335Z,1.10
2018-09-28T10:02:00.938Z,1.43
2018-09-28T10:04:29.803Z,1.70
2018-09-28T10:06:58.651Z,1.30
2018-09-28T10:09:27.505Z,1.07
2018-09-28T10:11:57.106Z,1.70
2018-09-28T10:14:25.943Z,1.33
2018-09-28T10:16:54.775Z,1.47
2018-09-28T10:19:23.704Z,1.20
2018-09-28T10:21:52.492Z,1.60
2018-09-28T10:24:21.441Z,1.53
2018-09-28T10:26:50.266Z,1.57
2018-09-28T10:29:19.392Z,1.17
2018-09-28T10:31:48.280Z,1.80
2018-09-28T10:34:17.136Z,1.30
2018-09-28T10:36:46.020Z,0.97
2018-09-28T10:39:14.938Z,0.83
2018-09-28T10:41:43.800Z,0.97
2018-09-28T10:44:12.588Z,1.10
2018-09-28T10:46:41.683Z,1.10
2018-09-28T10:49:10.546Z,1.60
2018-09-28T10:51:39.478Z,0.60
2018-09-28T10:54:08.344Z,1.00
2018-09-28T10:56:37.208Z,1.57
2018-09-28T10:59:06.101Z,1.03
2018-09-28T11:01:34.987Z,0.93
2018-09-28T11:04:07.657Z,1.23
2018-09-28T11:06:36.504Z,1.53
2018-09-28T11:09:09.328Z,1.20
2018-09-28T11:11:38.384Z,1.03
2018-09-28T11:14:07.644Z,1.63
2018-09-28T11:16:36.488Z,1.50
2018-09-28T11:19:05.740Z,1.47
2018-09-28T11:21:34.558Z,1.03
2018-09-28T11:24:03.469Z,1.07
2018-09-28T11:26:32.356Z,1.43
2018-09-28T11:29:01.116Z,1.27
2018-09-28T11:31:29.934Z,0.93
2018-09-28T11:33:58.776Z,1.23
2018-09-28T11:36:27.636Z,1.30
2018-09-28T11:38:56.471Z,1.50
2018-09-28T11:41:25.306Z,1.10
2018-09-28T11:43:54.203Z,2.60
2018-09-28T11:46:22.998Z,1.37
2018-09-28T11:48:51.900Z,1.10
2018-09-28T11:51:20.739Z,1.10
2018-09-28T11:53:49.625Z,1.80
2018-09-28T11:56:18.419Z,1.80
2018-09-28T11:58:47.245Z,1.43
2018-09-28T12:01:16.091Z,1.30
2018-09-28T12:03:44.974Z,1.37
2018-09-28T12:06:13.780Z,1.10
2018-09-28T12:08:42.631Z,0.60
2018-09-28T12:11:11.428Z,0.80
2018-09-28T12:13:40.320Z,0.70
2018-09-28T12:16:09.200Z,1.20
2018-09-28T12:18:38.078Z,0.67
2018-09-28T12:21:06.999Z,0.67
2018-09-28T12:23:35.803Z,0.90
2018-09-28T12:26:04.656Z,0.70
2018-09-28T12:28:33.440Z,0.97
2018-09-28T12:31:02.267Z,0.93
2018-09-28T12:33:31.074Z,1.00
2018-09-28T12:36:00.318Z,0.90
2018-09-28T12:38:29.153Z,1.27
2018-09-28T12:40:57.979Z,1.53
2018-09-28T12:43:26.761Z,1.13
2018-09-28T12:45:55.637Z,1.20
2018-09-28T12:48:24.474Z,1.00
2018-09-28T12:50:54.198Z,1.20
2018-09-28T12:53:23.091Z,2.20
2018-09-28T12:55:51.948Z,1.30
2018-09-28T12:58:20.764Z,1.03
2018-09-28T13:00:50.009Z,1.10
2018-09-28T13:03:18.851Z,0.93
2018-09-28T13:05:47.729Z,1.27
2018-09-28T13:08:16.603Z,0.90
2018-09-28T13:10:46.487Z,1.13
2018-09-28T13:13:15.863Z,1.33
2018-09-28T13:15:44.781Z,1.07
2018-09-28T13:18:13.580Z,1.50
2018-09-28T13:20:42.537Z,1.70
2018-09-28T13:23:11.265Z,1.47
2018-09-28T13:25:40.217Z,1.13
2018-09-28T13:28:09.107Z,1.00
2018-09-28T13:30:37.912Z,1.03
2018-09-28T13:33:06.792Z,0.70
2018-09-28T13:35:35.589Z,0.70
2018-09-28T13:38:04.486Z,0.57
2018-09-28T13:40:33.343Z,0.73
2018-09-28T13:43:03.148Z,1.30
2018-09-28T13:45:32.043Z,1.07
2018-09-28T13:48:00.795Z,0.80
2018-09-28T13:50:29.648Z,0.80
2018-09-28T13:52:58.634Z,0.70
2018-09-28T13:55:27.453Z,0.90
2018-09-28T13:57:56.268Z,1.00
2018-09-28T14:00:25.126Z,1.37
2018-09-28T14:02:53.940Z,1.13
2018-09-28T14:05:22.812Z,1.03
2018-09-28T14:07:51.733Z,1.07
2018-09-28T14:10:20.569Z,1.43
2018-09-28T14:12:49.408Z,1.40
2018-09-28T14:15:18.225Z,1.13
2018-09-28T14:17:47.114Z,1.00
2018-09-28T14:20:15.947Z,1.03
2018-09-28T14:22:45.250Z,1.07
2018-09-28T14:25:14.064Z,1.20
2018-09-28T14:27:42.836Z,0.97
2018-09-28T14:30:12.925Z,0.97
2018-09-28T14:32:41.725Z,0.97
2018-09-28T14:35:10.564Z,1.50
2018-09-28T14:37:39.361Z,1.40
2018-09-28T14:40:09.869Z,1.50
2018-09-28T14:42:40.388Z,0.90
2018-09-28T14:45:09.248Z,1.03
2018-09-28T14:47:38.064Z,1.60
2018-09-28T14:50:07.100Z,1.00
2018-09-28T14:52:35.962Z,1.20
2018-09-28T14:55:05.072Z,0.90
2018-09-28T14:57:33.886Z,0.80
2018-09-28T15:00:04.358Z,0.97
2018-09-28T15:02:33.235Z,1.00
2018-09-28T15:05:02.116Z,0.80
2018-09-28T15:07:31.416Z,0.70
2018-09-28T15:10:01.483Z,1.23
2018-09-28T15:12:30.359Z,0.93
2018-09-28T15:14:59.380Z,0.90
2018-09-28T15:17:28.227Z,1.27
2018-09-28T15:19:57.220Z,1.00
2018-09-28T15:22:26.024Z,1.00
2018-09-28T15:24:54.821Z,1.20
2018-09-28T15:27:23.713Z,1.00
2018-09-28T15:29:52.484Z,1.20
2018-09-28T15:32:21.385Z,0.87
2018-09-28T15:34:50.180Z,0.90
2018-09-28T15:37:19.008Z,0.90
2018-09-28T15:39:47.824Z,0.80
2018-09-28T15:42:16.666Z,0.97
2018-09-28T15:44:45.516Z,1.33
2018-09-28T15:47:14.339Z,1.03
2018-09-28T15:49:43.115Z,1.13
2018-09-28T15:52:11.949Z,2.20
2018-09-28T15:54:40.843Z,1.23
2018-09-28T15:57:09.743Z,1.23
2018-09-28T15:59:38.579Z,0.90
2018-09-28T16:02:07.876Z,0.97
2018-09-28T16:04:36.717Z,1.13
2018-09-28T16:07:06.061Z,1.10
2018-09-28T16:09:35.094Z,1.10
2018-09-28T16:12:04.054Z,1.20
2018-09-28T16:14:32.786Z,1.53
2018-09-28T16:17:01.649Z,1.13
2018-09-28T16:19:30.503Z,1.27
2018-09-28T16:21:59.365Z,1.20
2018-09-28T16:24:28.214Z,1.37
2018-09-28T16:26:57.006Z,0.83
2018-09-28T16:29:26.308Z,1.17
2018-09-28T16:31:55.101Z,2.00
2018-09-28T16:34:24.260Z,1.73
2018-09-28T16:36:53.116Z,1.23
2018-09-28T16:39:22.394Z,1.23
2018-09-28T16:41:51.310Z,1.37
2018-09-28T16:44:20.146Z,1.23
2018-09-28T16:46:49.121Z,1.00
2018-09-28T16:49:17.990Z,1.53
2018-09-28T16:51:46.792Z,1.47
2018-09-28T16:54:15.723Z,1.40
2018-09-28T16:56:44.504Z,1.93
2018-09-28T16:59:13.396Z,1.83
2018-09-28T17:01:42.203Z,1.50
2018-09-28T17:04:11.035Z,1.53
2018-09-28T17:06:39.880Z,2.10
2018-09-28T17:09:12.562Z,1.63
2018-09-28T17:11:42.852Z,1.77
2018-09-28T17:14:11.710Z,1.37
2018-09-28T17:16:40.539Z,1.80
2018-09-28T17:19:09.375Z,1.93
2018-09-28T17:21:38.193Z,1.77
2018-09-28T17:24:07.448Z,1.40
2018-09-28T17:26:36.288Z,2.00
2018-09-28T17:29:05.220Z,2.43
2018-09-28T17:31:34.148Z,1.77
2018-09-28T17:34:02.966Z,1.70
2018-09-28T17:36:32.525Z,1.37
2018-09-28T17:39:01.319Z,2.00
2018-09-28T17:41:30.218Z,2.07
2018-09-28T17:43:59.070Z,1.10
2018-09-28T17:46:28.164Z,2.07
2018-09-28T17:48:57.012Z,1.97
2018-09-28T17:51:25.883Z,2.27
2018-09-28T17:53:54.741Z,2.60
2018-09-28T17:56:23.944Z,2.97
2018-09-28T17:58:52.784Z,2.63
2018-09-28T18:01:21.900Z,1.50
2018-09-28T18:03:50.702Z,2.63
2018-09-28T18:06:19.555Z,3.23
2018-09-28T18:08:48.377Z,2.87
2018-09-28T18:11:17.423Z,1.87
2018-09-28T18:13:46.633Z,1.90
2018-09-28T18:16:16.384Z,2.23
2018-09-28T18:18:45.256Z,2.70
2018-09-28T18:21:14.045Z,2.03
2018-09-28T18:23:42.901Z,2.60
2018-09-28T18:26:11.724Z,2.47
2018-09-28T18:28:40.609Z,2.37
2018-09-28T18:31:09.916Z,2.17
2018-09-28T18:33:38.750Z,2.37
2018-09-28T18:36:07.620Z,2.30
2018-09-28T18:38:36.672Z,2.43
2018-09-28T18:41:05.769Z,1.90
2018-09-28T18:43:34.593Z,1.90
2018-09-28T18:46:03.401Z,1.97
2018-09-28T18:48:32.370Z,1.87
2018-09-28T18:51:01.237Z,2.20
2018-09-28T18:53:30.082Z,2.33
2018-09-28T18:55:58.997Z,2.83
2018-09-28T18:58:27.760Z,2.30
2018-09-28T19:00:56.661Z,2.07
2018-09-28T19:03:25.916Z,1.73
2018-09-28T19:05:54.844Z,2.23
2018-09-28T19:08:23.640Z,2.60
2018-09-28T19:10:52.420Z,2.10
2018-09-28T19:13:21.253Z,2.20
2018-09-28T19:15:50.227Z,2.10
2018-09-28T19:18:19.016Z,1.70
2018-09-28T19:20:47.806Z,1.70
2018-09-28T19:23:16.625Z,2.40
2018-09-28T19:25:45.419Z,2.03
2018-09-28T19:28:14.529Z,3.47
2018-09-28T19:30:43.383Z,4.53
2018-09-28T19:33:12.195Z,4.13
2018-09-28T19:35:41.032Z,3.40
2018-09-28T19:38:09.832Z,2.23
2018-09-28T19:40:39.212Z,2.30
2018-09-28T19:43:07.987Z,2.50
2018-09-28T19:45:37.052Z,2.20
2018-09-28T19:48:06.280Z,2.37
2018-09-28T19:50:35.111Z,1.73
2018-09-28T19:53:04.013Z,1.53
2018-09-28T19:55:33.040Z,1.60
2018-09-28T19:58:01.885Z,1.80
2018-09-28T20:00:30.672Z,1.93
2018-09-28T20:02:59.512Z,1.70
2018-09-28T20:05:28.367Z,2.03
2018-09-28T20:07:57.291Z,2.00
2018-09-28T20:10:26.084Z,1.73
2018-09-28T20:12:54.902Z,1.73
2018-09-28T20:15:23.693Z,3.00
2018-09-28T20:17:52.616Z,1.67
2018-09-28T20:20:21.743Z,1.73
2018-09-28T20:22:50.907Z,1.70
2018-09-28T20:25:19.841Z,1.80
2018-09-28T20:27:48.667Z,1.33
2018-09-28T20:30:17.535Z,2.17
2018-09-28T20:32:46.408Z,1.67
2018-09-28T20:35:15.219Z,2.30
2018-09-28T20:37:44.159Z,1.60
2018-09-28T20:40:12.965Z,1.60
2018-09-28T20:42:41.830Z,1.77
2018-09-28T20:45:16.754Z,1.73
2018-09-28T20:47:45.555Z,2.43
2018-09-28T20:50:14.435Z,1.67
2018-09-28T20:52:43.296Z,1.80
2018-09-28T20:55:12.219Z,1.60
2018-09-28T20:57:41.025Z,1.67
2018-09-28T21:00:10.210Z,1.80
2018-09-28T21:02:39.030Z,1.50
2018-09-28T21:05:07.970Z,1.93
2018-09-28T21:07:36.815Z,2.33
2018-09-28T21:10:05.715Z,1.97
2018-09-28T21:12:34.517Z,1.93
2018-09-28T21:15:04.927Z,1.73
2018-09-28T21:17:35.511Z,1.90
2018-09-28T21:20:04.464Z,1.60
2018-09-28T21:22:33.276Z,1.93
2018-09-28T21:25:02.151Z,1.97
2018-09-28T21:27:31.209Z,1.97
2018-09-28T21:30:00.090Z,2.60
2018-09-28T21:32:29.138Z,2.13
2018-09-28T21:34:58.016Z,2.20
2018-09-28T21:37:26.783Z,1.60
2018-09-28T21:39:55.586Z,2.20
2018-09-28T21:42:24.472Z,1.83
2018-09-28T21:44:53.281Z,2.83
2018-09-28T21:47:22.110Z,2.17
2018-09-28T21:49:51.252Z,1.87
2018-09-28T21:52:20.080Z,1.80
2018-09-28T21:54:48.940Z,1.93
2018-09-28T21:57:17.785Z,2.27
2018-09-28T21:59:46.550Z,2.17
2018-09-28T22:02:15.411Z,2.30
2018-09-28T22:04:44.255Z,2.03
2018-09-28T22:07:13.128Z,2.60
2018-09-28T22:09:41.921Z,1.73
2018-09-28T22:12:10.887Z,2.10
2018-09-28T22:14:39.704Z,2.47
2018-09-28T22:17:08.555Z,2.33
2018-09-28T22:19:37.410Z,2.10
2018-09-28T22:22:06.315Z,2.23
2018-09-28T22:24:35.078Z,1.73
2018-09-28T22:27:03.938Z,1.97
2018-09-28T22:29:32.706Z,2.13
2018-09-28T22:32:01.604Z,2.23
2018-09-28T22:34:30.420Z,2.47
2018-09-28T22:36:59.205Z,2.60
2018-09-28T22:39:29.282Z,2.00
2018-09-28T22:41:58.324Z,2.00
2018-09-28T22:44:27.234Z,2.43
2018-09-28T22:46:56.034Z,1.50
2018-09-28T22:49:24.876Z,1.87
2018-09-28T22:51:53.664Z,2.00
2018-09-28T22:54:22.503Z,2.63
2018-09-28T22:56:51.394Z,1.70
2018-09-28T22:59:20.432Z,1.80
2018-09-28T23:01:49.264Z,2.10
2018-09-28T23:04:18.114Z,1.90
2018-09-28T23:06:47.157Z,1.60
2018-09-28T23:09:16.048Z,1.90
2018-09-28T23:11:44.831Z,1.97
2018-09-28T23:14:13.685Z,1.93
2018-09-28T23:16:42.491Z,2.60
2018-09-28T23:19:11.328Z,2.10
2018-09-28T23:21:40.520Z,1.93
2018-09-28T23:24:09.339Z,2.13
2018-09-28T23:26:38.135Z,2.00
2018-09-28T23:29:06.953Z,1.73
2018-09-28T23:31:35.739Z,2.13
2018-09-28T23:34:04.664Z,1.63
2018-09-28T23:36:33.471Z,1.70
2018-09-28T23:39:02.431Z,2.00
2018-09-28T23:41:31.289Z,2.00
2018-09-28T23:44:00.104Z,1.90
2018-09-28T23:46:29.011Z,1.67
2018-09-28T23:48:57.819Z,2.00
2018-09-28T23:51:26.651Z,1.93
2018-09-28T23:53:55.868Z,2.03
2018-09-28T23:56:24.739Z,1.90
2018-09-28T23:58:53.719Z,2.20
